createdAt,value
2022-10-14T00:00:28.049Z,99978.41
2022-10-14T00:01:19.977Z,99974.19
2022-10-14T00:02:15.564Z,99971.53
2022-10-14T00:03:06.927Z,99973.38
2022-10-14T00:03:58.165Z,99967.16
2022-10-14T00:04:51.623Z,99968.88
2022-10-14T00:05:43.857Z,99969.69
2022-10-14T00:06:35.847Z,99969.41
2022-10-14T00:07:34.625Z,99974.47
2022-10-14T00:08:24.277Z,99962.94
2022-10-14T00:09:14.167Z,99964.63
2022-10-14T00:10:08.277Z,99961.41
2022-10-14T00:11:01.552Z,99968.28
2022-10-14T00:11:54.320Z,99966.06
2022-10-14T00:12:52.748Z,99961.69
2022-10-14T00:13:45.196Z,99961.25
2022-10-14T00:14:38.486Z,99969.25
2022-10-14T00:15:30.815Z,99965.22
2022-10-14T00:16:25.402Z,99960.56
2022-10-14T00:17:23.282Z,99960.72
2022-10-14T00:18:13.119Z,99961.84
2022-10-14T00:19:05.048Z,99954.84
2022-10-14T00:19:58.747Z,99954.41
2022-10-14T00:20:50.923Z,99953.41
2022-10-14T00:21:43.960Z,99960.72
2022-10-14T00:23:37.843Z,99955.53
2022-10-14T00:24:30.855Z,99955.22
2022-10-14T00:25:23.782Z,99960.03
2022-10-14T00:26:15.028Z,99960.56
2022-10-14T00:27:07.276Z,99957.22
2022-10-14T00:29:01.553Z,99955.66
2022-10-14T00:29:54.733Z,99952.03
2022-10-14T00:30:45.689Z,99952.84
2022-10-14T00:31:38.547Z,99946.81
2022-10-14T00:32:34.975Z,99947.81
2022-10-14T00:33:27.773Z,99954.44
2022-10-14T00:34:21.260Z,99947.50
2022-10-14T00:35:13.072Z,99949.50
2022-10-14T00:36:14.211Z,99946.81
2022-10-14T00:37:05.994Z,99955.53
2022-10-14T00:39:01.295Z,99952.84
2022-10-14T00:39:57.019Z,99955.13
2022-10-14T00:40:48.400Z,99955.66
2022-10-14T00:41:37.974Z,99952.03
2022-10-14T00:42:31.301Z,99946.69
2022-10-14T00:43:21.100Z,99951.44
2022-10-14T00:44:09.392Z,99955.81
2022-10-14T00:44:50.696Z,99947.81
2022-10-14T00:45:38.757Z,99946.97
2022-10-14T00:46:26.515Z,99950.91
2022-10-14T00:47:15.103Z,99952.03
2022-10-14T00:48:10.207Z,99952.31
2022-10-14T00:48:59.445Z,99951.44
2022-10-14T00:49:53.029Z,99954.44
2022-10-14T00:50:43.259Z,99951.75
2022-10-14T00:51:33.909Z,99955.41
2022-10-14T00:52:34.277Z,99950.06
2022-10-14T00:53:24.480Z,99948.22
2022-10-14T00:54:14.287Z,99948.94
2022-10-14T00:55:07.985Z,99954.44
2022-10-14T00:55:58.601Z,99948.09
2022-10-14T00:56:46.122Z,99949.50
2022-10-14T00:57:41.248Z,99946.81
2022-10-14T00:58:31.251Z,99947.81
2022-10-14T00:59:20.520Z,99945.41
2022-10-14T01:00:17.585Z,99944.59
2022-10-14T01:01:08.437Z,99950.91
2022-10-14T01:02:02.158Z,99954.84
2022-10-14T01:02:58.056Z,99945.97
2022-10-14T01:03:50.585Z,99952.31
2022-10-14T01:04:43.659Z,99944.72
2022-10-14T01:05:34.305Z,99941.50
2022-10-14T01:06:31.497Z,99949.22
2022-10-14T01:07:20.199Z,99945.97
2022-10-14T01:08:11.114Z,99944.84
2022-10-14T01:08:52.302Z,99943.28
2022-10-14T01:09:58.481Z,99945.97
2022-10-14T01:10:40.879Z,99945.56
2022-10-14T01:11:35.906Z,99943.44
2022-10-14T01:12:33.727Z,99936.00
2022-10-14T01:13:40.585Z,99943.00
2022-10-14T01:14:50.587Z,99936.84
2022-10-14T01:15:37.166Z,99937.66
2022-10-14T01:16:23.791Z,99939.09
2022-10-14T01:17:19.695Z,99928.44
2022-10-14T01:18:07.525Z,99940.38
2022-10-14T01:18:53.200Z,99933.47
2022-10-14T01:19:51.146Z,99945.28
2022-10-14T01:20:35.538Z,99946.84
2022-10-14T01:21:25.687Z,99945.00
2022-10-14T01:22:26.951Z,99944.88
2022-10-14T01:23:24.499Z,99940.22
2022-10-14T01:24:09.092Z,99940.22
2022-10-14T01:24:56.849Z,99938.09
2022-10-14T01:25:37.482Z,99941.22
2022-10-14T01:26:19.112Z,99937.41
2022-10-14T01:27:12.481Z,99937.69
2022-10-14T01:28:13.172Z,99941.38
2022-10-14T01:29:18.606Z,99940.78
2022-10-14T01:30:20.987Z,99933.63
2022-10-14T01:31:15.297Z,99937.97
2022-10-14T01:32:22.606Z,99931.78
2022-10-14T01:33:26.716Z,99930.81
2022-10-14T01:34:18.449Z,99929.25
2022-10-14T01:35:14.278Z,99934.06
2022-10-14T01:36:06.835Z,99933.78
2022-10-14T01:36:56.691Z,99935.75
2022-10-14T01:37:45.296Z,99932.06
2022-10-14T01:38:38.928Z,99927.28
2022-10-14T01:40:45.244Z,99930.09
2022-10-14T01:41:43.784Z,99925.47
2022-10-14T01:42:31.799Z,99930.41
2022-10-14T01:43:24.888Z,99927.59
2022-10-14T01:44:15.524Z,99922.56
2022-10-14T01:45:11.589Z,99925.38
2022-10-14T01:46:02.080Z,99927.59
2022-10-14T01:46:50.658Z,99929.13
2022-10-14T01:47:40.348Z,99917.75
2022-10-14T01:48:35.148Z,99919.41
2022-10-14T01:49:25.838Z,99922.81
2022-10-14T01:50:22.418Z,99912.72
2022-10-14T01:51:12.788Z,99928.72
2022-10-14T01:52:05.821Z,99917.75
2022-10-14T01:53:02.302Z,99913.69
2022-10-14T01:54:01.201Z,99916.66
2022-10-14T01:54:51.681Z,99921.69
2022-10-14T01:55:39.748Z,99918.06
2022-10-14T01:56:29.885Z,99918.34
2022-10-14T01:57:18.772Z,99918.06
2022-10-14T01:58:07.466Z,99915.22
2022-10-14T01:59:00.093Z,99915.81
2022-10-14T01:59:47.674Z,99914.97
2022-10-14T02:00:34.934Z,99908.63
2022-10-14T02:01:23.687Z,99916.06
2022-10-14T02:02:14.719Z,99921.41
2022-10-14T02:03:05.051Z,99918.59
2022-10-14T02:03:56.184Z,99915.38
2022-10-14T02:04:52.114Z,99909.22
2022-10-14T02:05:55.140Z,99910.03
2022-10-14T02:06:45.288Z,99912.03
2022-10-14T02:07:51.251Z,99906.13
2022-10-14T02:08:48.551Z,99917.34
2022-10-14T02:09:48.329Z,99917.34
2022-10-14T02:10:33.652Z,99913.41
2022-10-14T02:11:23.370Z,99914.94
2022-10-14T02:12:26.774Z,99907.09
2022-10-14T02:13:12.046Z,99908.19
2022-10-14T02:13:53.635Z,99909.75
2022-10-14T02:14:45.293Z,99912.13
2022-10-14T02:15:46.139Z,99897.78
2022-10-14T02:16:28.064Z,99905.66
2022-10-14T02:17:26.371Z,99903.84
2022-10-14T02:18:28.455Z,99899.47
2022-10-14T02:19:21.825Z,99902.00
2022-10-14T02:20:21.652Z,99895.13
2022-10-14T02:21:17.062Z,99894.97
2022-10-14T02:22:10.897Z,99901.31
2022-10-14T02:23:02.047Z,99893.31
2022-10-14T02:23:53.067Z,99889.63
2022-10-14T02:24:46.483Z,99895.69
2022-10-14T02:25:46.316Z,99894.28
2022-10-14T02:26:35.774Z,99892.75
2022-10-14T02:27:25.998Z,99897.78
2022-10-14T02:28:15.319Z,99896.41
2022-10-14T02:29:05.614Z,99893.75
2022-10-14T02:29:56.887Z,99891.06
2022-10-14T02:30:55.480Z,99891.06
2022-10-14T02:31:45.856Z,99892.75
2022-10-14T02:32:35.844Z,99890.78
2022-10-14T02:33:25.791Z,99885.75
2022-10-14T02:34:15.970Z,99888.41
2022-10-14T02:35:05.433Z,99885.59
2022-10-14T02:36:00.082Z,99887.41
2022-10-14T02:36:50.749Z,99885.59
2022-10-14T02:37:40.488Z,99887.25
2022-10-14T02:38:30.926Z,99888.13
2022-10-14T02:39:21.275Z,99887.72
2022-10-14T02:40:24.839Z,99888.13
2022-10-14T02:41:16.696Z,99886.84
2022-10-14T02:42:05.325Z,99877.59
2022-10-14T02:42:55.535Z,99877.72
2022-10-14T02:43:45.328Z,99881.09
2022-10-14T02:44:34.934Z,99871.56
2022-10-14T02:45:23.070Z,99877.72
2022-10-14T02:46:17.925Z,99874.78
2022-10-14T02:47:08.162Z,99873.38
2022-10-14T02:47:57.851Z,99878.41
2022-10-14T02:48:48.007Z,99875.31
2022-10-14T02:49:38.467Z,99875.22
2022-10-14T02:50:29.367Z,99870.56
2022-10-14T02:51:25.116Z,99879.09
2022-10-14T02:52:15.449Z,99871.09
2022-10-14T02:53:05.276Z,99881.78
2022-10-14T02:53:56.169Z,99868.44
2022-10-14T02:54:46.453Z,99870.13
2022-10-14T02:55:34.963Z,99874.63
2022-10-14T02:56:28.635Z,99867.44
2022-10-14T02:57:18.279Z,99865.75
2022-10-14T02:58:07.146Z,99870.13
2022-10-14T02:58:58.391Z,99874.19
2022-10-14T02:59:59.998Z,99865.75
2022-10-14T03:00:50.577Z,99866.78
2022-10-14T03:01:44.751Z,99868.91
2022-10-14T03:02:34.009Z,99862.00
2022-10-14T03:03:22.654Z,99868.72
2022-10-14T03:04:12.956Z,99868.03
2022-10-14T03:05:00.924Z,99867.34
2022-10-14T03:05:52.680Z,99865.50
2022-10-14T03:06:40.673Z,99867.75
2022-10-14T03:07:27.791Z,99868.44
2022-10-14T03:08:15.500Z,99868.56
2022-10-14T03:09:04.191Z,99871.25
2022-10-14T03:09:52.111Z,99863.38
2022-10-14T03:10:39.525Z,99860.72
2022-10-14T03:11:35.258Z,99857.06
2022-10-14T03:12:25.910Z,99848.22
2022-10-14T03:13:16.524Z,99855.09
2022-10-14T03:14:06.395Z,99858.75
2022-10-14T03:14:56.638Z,99862.41
2022-10-14T03:15:47.053Z,99857.75
2022-10-14T03:16:41.963Z,99853.88
2022-10-14T03:17:32.136Z,99856.25
2022-10-14T03:18:23.184Z,99851.88
2022-10-14T03:19:13.612Z,99853.13
2022-10-14T03:20:03.986Z,99857.31
2022-10-14T03:20:54.630Z,99857.03
2022-10-14T03:21:47.650Z,99848.47
2022-10-14T03:22:38.409Z,99847.81
2022-10-14T03:23:29.529Z,99837.13
2022-10-14T03:24:19.080Z,99847.94
2022-10-14T03:25:09.479Z,99841.75
2022-10-14T03:25:59.553Z,99848.91
2022-10-14T03:26:54.371Z,99836.25
2022-10-14T03:27:45.219Z,99836.56
2022-10-14T03:28:34.033Z,99840.09
2022-10-14T03:29:25.499Z,99841.22
2022-10-14T03:30:15.582Z,99840.09
2022-10-14T03:31:07.277Z,99841.22
2022-10-14T03:31:58.106Z,99837.41
2022-10-14T03:32:48.730Z,99843.03
2022-10-14T03:33:40.146Z,99840.91
2022-10-14T03:34:30.288Z,99841.34
2022-10-14T03:35:21.074Z,99832.66
2022-10-14T03:36:16.228Z,99836.44
2022-10-14T03:37:06.997Z,99831.13
2022-10-14T03:37:57.017Z,99835.78
2022-10-14T03:38:47.560Z,99834.66
2022-10-14T03:39:37.011Z,99837.72
2022-10-14T03:40:27.845Z,99828.69
2022-10-14T03:41:20.447Z,99839.38
2022-10-14T03:42:09.167Z,99832.09
2022-10-14T03:42:59.136Z,99829.41
2022-10-14T03:43:47.709Z,99822.53
2022-10-14T03:44:35.439Z,99829.56
2022-10-14T03:45:23.529Z,99837.84
2022-10-14T03:46:10.599Z,99826.19
2022-10-14T03:47:07.669Z,99832.09
2022-10-14T03:47:57.884Z,99829.25
2022-10-14T03:48:48.098Z,99824.75
2022-10-14T03:49:38.745Z,99826.75
2022-10-14T03:50:27.772Z,99832.38
2022-10-14T03:51:18.877Z,99829.03
2022-10-14T03:52:12.206Z,99829.56
2022-10-14T03:53:01.473Z,99835.28
2022-10-14T03:53:52.150Z,99816.31
2022-10-14T03:54:42.527Z,99830.09
2022-10-14T03:55:32.350Z,99825.72
2022-10-14T03:56:22.537Z,99821.41
2022-10-14T03:57:15.960Z,99828.25
2022-10-14T03:58:04.875Z,99828.09
2022-10-14T03:58:55.230Z,99826.75
2022-10-14T03:59:45.236Z,99823.06
2022-10-14T04:00:35.544Z,99818.88
2022-10-14T04:01:25.699Z,99823.34
2022-10-14T04:02:20.415Z,99812.38
2022-10-14T04:03:10.341Z,99820.97
2022-10-14T04:04:00.305Z,99821.50
2022-10-14T04:04:50.506Z,99819.13
2022-10-14T04:05:42.140Z,99814.91
2022-10-14T04:06:30.570Z,99816.47
2022-10-14T04:07:21.854Z,99812.63
2022-10-14T04:08:10.326Z,99810.16
2022-10-14T04:09:00.318Z,99813.50
2022-10-14T04:09:51.793Z,99811.28
2022-10-14T04:10:39.464Z,99812.38
2022-10-14T04:11:29.465Z,99815.06
2022-10-14T04:12:18.130Z,99812.25
2022-10-14T04:13:07.379Z,99815.91
2022-10-14T04:13:56.281Z,99813.25
2022-10-14T04:14:44.970Z,99813.09
2022-10-14T04:15:32.592Z,99817.97
2022-10-14T04:16:25.215Z,99807.88
2022-10-14T04:17:14.635Z,99809.66
2022-10-14T04:18:06.101Z,99813.34
2022-10-14T04:18:56.021Z,99810.81
2022-10-14T04:19:47.060Z,99814.03
2022-10-14T04:20:35.299Z,99814.91
2022-10-14T04:21:30.502Z,99816.91
2022-10-14T04:22:19.661Z,99814.38
2022-10-14T04:23:09.132Z,99817.72
2022-10-14T04:24:02.704Z,99816.47
2022-10-14T04:24:50.861Z,99811.03
2022-10-14T04:25:40.089Z,99818.34
2022-10-14T04:26:30.921Z,99821.16
2022-10-14T04:27:17.950Z,99810.50
2022-10-14T04:28:05.335Z,99814.66
2022-10-14T04:28:56.042Z,99823.09
2022-10-14T04:29:45.310Z,99813.88
2022-10-14T04:30:36.681Z,99818.63
2022-10-14T04:31:24.725Z,99808.50
2022-10-14T04:32:20.655Z,99814.91
2022-10-14T04:33:10.898Z,99811.03
2022-10-14T04:34:02.427Z,99815.06
2022-10-14T04:34:52.949Z,99812.00
2022-10-14T04:35:41.691Z,99807.63
2022-10-14T04:36:34.353Z,99811.81
2022-10-14T04:37:23.961Z,99805.94
2022-10-14T04:38:14.251Z,99815.47
2022-10-14T04:39:03.784Z,99808.16
2022-10-14T04:39:56.201Z,99811.72
2022-10-14T04:40:50.757Z,99806.38
2022-10-14T04:41:43.449Z,99813.78
2022-10-14T04:42:34.143Z,99810.16
2022-10-14T04:43:25.128Z,99803.94
2022-10-14T04:44:16.073Z,99809.13
2022-10-14T04:45:07.386Z,99810.16
2022-10-14T04:45:59.282Z,99812.09
2022-10-14T04:46:54.703Z,99809.72
2022-10-14T04:47:48.429Z,99807.06
2022-10-14T04:48:37.078Z,99805.09
2022-10-14T04:49:27.574Z,99805.25
2022-10-14T04:50:16.193Z,99800.59
2022-10-14T04:51:06.700Z,99803.69
2022-10-14T04:52:01.354Z,99801.03
2022-10-14T04:52:52.288Z,99801.03
2022-10-14T04:53:42.784Z,99792.19
2022-10-14T04:54:32.826Z,99797.53
2022-10-14T04:55:23.542Z,99795.56
2022-10-14T04:56:14.294Z,99797.69
2022-10-14T04:57:08.839Z,99793.84
2022-10-14T04:57:57.890Z,99804.38
2022-10-14T04:58:47.272Z,99797.38
2022-10-14T04:59:34.461Z,99796.94
2022-10-14T05:00:22.675Z,99802.44
2022-10-14T05:01:14.005Z,99793.72
2022-10-14T05:02:12.263Z,99798.38
2022-10-14T05:03:01.872Z,99800.88
2022-10-14T05:03:51.172Z,99799.75
2022-10-14T05:04:41.333Z,99800.75
2022-10-14T05:05:32.025Z,99800.06
2022-10-14T05:06:25.253Z,99798.91
2022-10-14T05:07:15.473Z,99801.13
2022-10-14T05:08:06.702Z,99812.81
2022-10-14T05:08:57.533Z,99803.13
2022-10-14T05:09:51.158Z,99803.69
2022-10-14T05:10:43.185Z,99807.06
2022-10-14T05:12:39.294Z,99802.72
2022-10-14T05:13:32.641Z,99802.28
2022-10-14T05:14:25.891Z,99801.56
2022-10-14T05:15:17.985Z,99809.19
2022-10-14T05:16:09.361Z,99812.53
2022-10-14T05:17:09.472Z,99808.22
2022-10-14T05:18:02.827Z,99803.56
2022-10-14T05:18:55.296Z,99806.06
2022-10-14T05:19:48.746Z,99809.72
2022-10-14T05:20:42.028Z,99807.78
2022-10-14T05:21:39.894Z,99805.09
2022-10-14T05:22:33.786Z,99806.50
2022-10-14T05:23:24.747Z,99805.00
2022-10-14T05:24:15.719Z,99804.84
2022-10-14T05:25:06.220Z,99793.56
2022-10-14T05:25:57.524Z,99791.03
2022-10-14T05:26:58.840Z,99793.28
2022-10-14T05:27:52.989Z,99790.75
2022-10-14T05:28:46.005Z,99794.72
2022-10-14T05:29:38.911Z,99791.75
2022-10-14T05:30:34.860Z,99795.78
2022-10-14T05:31:25.396Z,99800.31
2022-10-14T05:33:21.470Z,99798.59
2022-10-14T05:34:14.287Z,99794.13
2022-10-14T05:35:05.216Z,99794.97
2022-10-14T05:35:59.786Z,99794.13
2022-10-14T05:36:54.119Z,99796.22
2022-10-14T05:37:53.988Z,99795.56
2022-10-14T05:38:48.719Z,99798.59
2022-10-14T05:39:40.222Z,99796.38
2022-10-14T05:40:30.032Z,99792.88
2022-10-14T05:41:20.745Z,99791.34
2022-10-14T05:42:16.289Z,99796.53
2022-10-14T05:43:09.995Z,99791.34
2022-10-14T05:44:02.949Z,99796.84
2022-10-14T05:44:55.177Z,99791.34
2022-10-14T05:45:47.167Z,99796.38
2022-10-14T05:46:41.718Z,99794.44
2022-10-14T05:47:39.344Z,99792.44
2022-10-14T05:48:31.554Z,99793.72
2022-10-14T05:49:24.658Z,99796.22
2022-10-14T05:50:17.347Z,99794.13
2022-10-14T05:51:05.261Z,99795.78
2022-10-14T05:51:54.028Z,99792.44
2022-10-14T05:52:53.784Z,99789.91
2022-10-14T05:53:44.917Z,99797.25
2022-10-14T05:54:37.076Z,99787.69
2022-10-14T05:55:28.988Z,99788.84
2022-10-14T05:56:20.326Z,99786.19
2022-10-14T05:57:13.443Z,99782.66
2022-10-14T05:58:13.149Z,99780.66
2022-10-14T05:59:06.758Z,99782.50
2022-10-14T06:00:00.433Z,99778.41
2022-10-14T06:00:51.977Z,99780.50
2022-10-14T06:01:43.425Z,99782.06
2022-10-14T06:02:38.715Z,99781.91
2022-10-14T06:04:33.344Z,99783.13
2022-10-14T06:05:26.417Z,99776.97
2022-10-14T06:06:18.979Z,99785.66
2022-10-14T06:07:16.238Z,99781.31
2022-10-14T06:08:12.906Z,99780.31
2022-10-14T06:09:11.175Z,99775.97
2022-10-14T06:10:02.067Z,99773.03
2022-10-14T06:10:55.068Z,99778.50
2022-10-14T06:11:46.341Z,99778.66
2022-10-14T06:12:39.022Z,99774.16
2022-10-14T06:13:39.767Z,99781.19
2022-10-14T06:14:32.331Z,99771.31
2022-10-14T06:15:25.023Z,99778.88
2022-10-14T06:16:23.488Z,99771.88
2022-10-14T06:17:23.055Z,99772.44
2022-10-14T06:18:14.908Z,99771.63
2022-10-14T06:19:08.316Z,99776.13
2022-10-14T06:20:02.057Z,99773.63
2022-10-14T06:20:54.690Z,99777.78
2022-10-14T06:21:45.804Z,99767.44
2022-10-14T06:22:47.012Z,99770.13
2022-10-14T06:23:39.154Z,99767.59
2022-10-14T06:24:29.637Z,99769.94
2022-10-14T06:25:20.361Z,99758.97
2022-10-14T06:26:12.318Z,99766.44
2022-10-14T06:27:03.859Z,99768.56
2022-10-14T06:28:01.489Z,99764.78
2022-10-14T06:28:55.781Z,99773.75
2022-10-14T06:29:48.430Z,99765.91
2022-10-14T06:30:42.248Z,99765.06
2022-10-14T06:31:32.574Z,99758.72
2022-10-14T06:32:28.378Z,99767.13
2022-10-14T06:33:24.399Z,99754.78
2022-10-14T06:34:15.952Z,99763.47
2022-10-14T06:35:08.688Z,99760.66
2022-10-14T06:36:02.783Z,99767.69
2022-10-14T06:37:01.266Z,99758.50
2022-10-14T06:37:52.934Z,99761.19
2022-10-14T06:39:48.574Z,99760.50
2022-10-14T06:40:40.562Z,99757.16
2022-10-14T06:41:33.781Z,99753.19
2022-10-14T06:42:26.469Z,99754.88
2022-10-14T06:43:21.127Z,99756.53
2022-10-14T06:44:17.905Z,99751.19
2022-10-14T06:45:07.395Z,99749.69
2022-10-14T06:45:57.310Z,99754.56
2022-10-14T06:46:50.281Z,99752.19
2022-10-14T06:47:44.515Z,99752.06
2022-10-14T06:48:42.750Z,99744.19
2022-10-14T06:49:34.304Z,99748.84
2022-10-14T06:50:29.721Z,99748.00
2022-10-14T06:51:21.858Z,99751.38
2022-10-14T06:52:14.348Z,99746.84
2022-10-14T06:53:07.842Z,99746.84
2022-10-14T06:55:02.794Z,99748.13
2022-10-14T06:55:56.617Z,99742.50
2022-10-14T06:56:46.766Z,99746.84
2022-10-14T06:57:40.560Z,99738.84
2022-10-14T06:58:29.660Z,99746.03
2022-10-14T06:59:27.000Z,99743.03
2022-10-14T07:00:19.153Z,99743.19
2022-10-14T07:01:16.105Z,99738.84
2022-10-14T07:02:06.840Z,99737.00
2022-10-14T07:02:58.833Z,99735.03
2022-10-14T07:03:52.845Z,99740.06
2022-10-14T07:04:46.537Z,99737.69
2022-10-14T07:05:38.034Z,99738.56
2022-10-14T07:06:28.692Z,99739.53
2022-10-14T07:07:17.865Z,99742.06
2022-10-14T07:08:11.477Z,99738.69
2022-10-14T07:09:04.260Z,99740.38
2022-10-14T07:09:59.310Z,99736.56
2022-10-14T07:10:50.885Z,99736.72
2022-10-14T07:11:42.115Z,99734.19
2022-10-14T07:12:33.707Z,99735.50
2022-10-14T07:13:25.206Z,99737.84
2022-10-14T07:14:15.796Z,99738.84
2022-10-14T07:15:10.815Z,99736.47
2022-10-14T07:16:02.094Z,99741.13
2022-10-14T07:16:52.742Z,99739.16
2022-10-14T07:17:43.098Z,99735.66
2022-10-14T07:18:34.621Z,99737.16
2022-10-14T07:19:28.640Z,99740.69
2022-10-14T07:20:27.415Z,99738.84
2022-10-14T07:21:19.620Z,99736.19
2022-10-14T07:22:14.137Z,99740.69
2022-10-14T07:23:06.839Z,99741.81
2022-10-14T07:24:00.053Z,99737.16
2022-10-14T07:24:53.430Z,99739.16
2022-10-14T07:26:50.475Z,99734.63
2022-10-14T07:27:48.333Z,99742.66
2022-10-14T07:28:40.901Z,99740.50
2022-10-14T07:29:33.150Z,99741.53
2022-10-14T07:30:25.009Z,99733.81
2022-10-14T07:31:20.228Z,99739.16
2022-10-14T07:32:12.368Z,99736.47
2022-10-14T07:33:05.081Z,99733.50
2022-10-14T07:33:59.223Z,99731.00
2022-10-14T07:34:52.347Z,99733.97
2022-10-14T07:35:42.970Z,99735.34
2022-10-14T07:37:39.532Z,99732.41
2022-10-14T07:38:36.975Z,99734.09
2022-10-14T07:39:29.330Z,99733.13
2022-10-14T07:40:24.213Z,99733.44
2022-10-14T07:41:19.876Z,99731.44
2022-10-14T07:42:13.099Z,99737.47
2022-10-14T07:43:05.772Z,99735.81
2022-10-14T07:43:58.976Z,99734.78
2022-10-14T07:44:51.573Z,99733.81
2022-10-14T07:45:43.700Z,99731.75
2022-10-14T07:47:40.374Z,99735.66
2022-10-14T07:48:52.716Z,99736.78
2022-10-14T07:49:47.209Z,99740.28
2022-10-14T07:50:41.486Z,99736.63
2022-10-14T07:51:34.538Z,99733.13
2022-10-14T07:52:26.330Z,99730.31
2022-10-14T07:53:23.457Z,99733.97
2022-10-14T07:54:16.345Z,99727.50
2022-10-14T07:55:09.467Z,99726.78
2022-10-14T07:56:01.623Z,99729.16
2022-10-14T07:56:55.032Z,99723.19
2022-10-14T07:57:48.795Z,99719.41
2022-10-14T07:58:46.757Z,99722.59
2022-10-14T07:59:40.203Z,99721.44
2022-10-14T08:00:33.037Z,99723.59
2022-10-14T08:01:26.371Z,99715.97
2022-10-14T08:02:18.895Z,99727.50
2022-10-14T08:03:16.698Z,99722.31
2022-10-14T08:04:08.737Z,99725.94
2022-10-14T08:06:11.948Z,99722.47
2022-10-14T08:07:03.031Z,99727.94
2022-10-14T08:07:53.526Z,99727.22
2022-10-14T08:08:52.380Z,99726.41
2022-10-14T08:09:40.936Z,99732.56
2022-10-14T08:10:28.236Z,99728.09
2022-10-14T08:11:10.896Z,99728.09
2022-10-14T08:11:59.952Z,99729.75
2022-10-14T08:12:49.999Z,99730.47
2022-10-14T08:13:46.210Z,99725.13
2022-10-14T08:14:35.682Z,99726.94
2022-10-14T08:15:26.581Z,99731.59
2022-10-14T08:16:18.457Z,99730.22
2022-10-14T08:17:08.789Z,99719.41
2022-10-14T08:17:55.604Z,99723.72
2022-10-14T08:18:47.637Z,99728.63
2022-10-14T08:19:37.336Z,99727.09
2022-10-14T08:20:25.926Z,99726.09
2022-10-14T08:21:16.563Z,99727.09
2022-10-14T08:22:05.063Z,99730.47
2022-10-14T08:22:54.166Z,99726.78
2022-10-14T08:23:48.847Z,99733.28
2022-10-14T08:24:39.452Z,99725.28
2022-10-14T08:25:29.442Z,99728.09
2022-10-14T08:26:31.134Z,99728.41
2022-10-14T08:27:20.974Z,99718.41
2022-10-14T08:28:10.874Z,99721.06
2022-10-14T08:29:04.215Z,99710.38
2022-10-14T08:29:55.548Z,99711.22
2022-10-14T08:30:45.736Z,99707.56
2022-10-14T08:31:36.187Z,99713.06
2022-10-14T08:32:26.492Z,99718.53
2022-10-14T08:33:16.568Z,99708.47
2022-10-14T08:34:10.768Z,99710.16
2022-10-14T08:35:01.818Z,99709.03
2022-10-14T08:35:54.026Z,99710.38
2022-10-14T08:36:41.655Z,99711.06
2022-10-14T08:37:32.846Z,99710.09
2022-10-14T08:38:23.983Z,99716.56
2022-10-14T08:39:24.189Z,99709.84
2022-10-14T08:41:17.683Z,99711.56
2022-10-14T08:42:05.093Z,99709.56
2022-10-14T08:42:47.021Z,99711.41
2022-10-14T08:43:37.585Z,99705.88
2022-10-14T08:44:36.698Z,99710.38
2022-10-14T08:45:28.796Z,99710.16
2022-10-14T08:46:21.634Z,99710.16
2022-10-14T08:47:13.088Z,99707.63
2022-10-14T08:48:05.984Z,99705.13
2022-10-14T08:48:58.416Z,99698.28
2022-10-14T08:49:57.680Z,99701.31
2022-10-14T08:50:51.847Z,99696.66
2022-10-14T08:51:43.344Z,99699.50
2022-10-14T08:52:24.455Z,99705.66
2022-10-14T08:53:15.465Z,99703.69
2022-10-14T08:54:06.648Z,99705.19
2022-10-14T08:55:03.360Z,99704.75
2022-10-14T08:55:47.223Z,99713.06
2022-10-14T08:56:40.999Z,99711.41
2022-10-14T08:57:33.337Z,99696.66
2022-10-14T08:59:17.944Z,99702.53
2022-10-14T09:00:17.040Z,99696.06
2022-10-14T09:01:09.857Z,99694.00
2022-10-14T09:02:08.827Z,99693.03
2022-10-14T09:02:59.897Z,99700.31
2022-10-14T09:03:49.665Z,99696.81
2022-10-14T09:04:40.098Z,99693.03
2022-10-14T09:05:36.493Z,99696.38
2022-10-14T09:06:21.851Z,99691.19
2022-10-14T09:07:10.882Z,99694.53
2022-10-14T09:08:02.265Z,99703.06
2022-10-14T09:08:53.318Z,99689.72
2022-10-14T09:09:49.714Z,99687.06
2022-10-14T09:10:54.417Z,99686.91
2022-10-14T09:11:44.156Z,99686.75
2022-10-14T09:12:41.651Z,99690.06
2022-10-14T09:13:34.923Z,99682.88
2022-10-14T09:14:26.788Z,99681.19
2022-10-14T09:15:32.825Z,99684.53
2022-10-14T09:16:24.681Z,99682.78
2022-10-14T09:17:14.871Z,99688.28
2022-10-14T09:18:54.914Z,99690.28
2022-10-14T09:20:24.773Z,99684.94
2022-10-14T09:21:34.239Z,99683.94
2022-10-14T09:22:39.027Z,99673.78
2022-10-14T09:23:30.559Z,99677.47
2022-10-14T09:24:24.616Z,99671.66
2022-10-14T09:25:20.529Z,99676.16
2022-10-14T09:26:13.602Z,99669.97
2022-10-14T09:27:05.193Z,99667.16
2022-10-14T09:27:59.136Z,99669.69
2022-10-14T09:28:49.684Z,99666.88
2022-10-14T09:29:37.774Z,99665.31
2022-10-14T09:30:34.387Z,99655.66
2022-10-14T09:31:25.047Z,99658.03
2022-10-14T09:32:19.622Z,99660.69
2022-10-14T09:33:12.964Z,99658.31
2022-10-14T09:34:02.960Z,99655.66
2022-10-14T09:34:54.921Z,99650.31
2022-10-14T09:35:56.006Z,99660.13
2022-10-14T09:36:47.912Z,99648.63
2022-10-14T09:37:47.634Z,99654.81
2022-10-14T09:38:41.140Z,99649.63
2022-10-14T09:39:34.675Z,99651.31
2022-10-14T09:40:17.604Z,99654.94
2022-10-14T09:41:11.706Z,99649.63
2022-10-14T09:42:03.410Z,99651.47
2022-10-14T09:43:12.561Z,99643.59
2022-10-14T09:44:17.006Z,99649.31
2022-10-14T09:45:11.067Z,99647.66
2022-10-14T09:46:05.467Z,99645.81
2022-10-14T09:47:02.008Z,99651.84
2022-10-14T09:48:10.099Z,99647.50
2022-10-14T09:49:04.032Z,99637.66
2022-10-14T09:49:54.170Z,99640.47
2022-10-14T09:50:46.831Z,99645.00
2022-10-14T09:51:48.421Z,99640.25
2022-10-14T09:52:42.557Z,99647.97
2022-10-14T09:53:36.852Z,99640.78
2022-10-14T09:54:33.104Z,99642.47
2022-10-14T09:55:25.572Z,99633.16
2022-10-14T09:56:20.078Z,99635.00
2022-10-14T09:57:25.763Z,99632.94
2022-10-14T09:58:19.993Z,99632.03
2022-10-14T09:59:13.013Z,99630.09
2022-10-14T10:00:04.110Z,99631.78
2022-10-14T10:00:56.427Z,99631.78
2022-10-14T10:01:51.447Z,99634.09
2022-10-14T10:02:46.796Z,99626.09
2022-10-14T10:03:43.692Z,99631.09
2022-10-14T10:04:37.750Z,99631.50
2022-10-14T10:05:38.882Z,99639.34
2022-10-14T10:06:34.814Z,99637.13
2022-10-14T10:07:42.797Z,99636.28
2022-10-14T10:08:38.756Z,99640.94
2022-10-14T10:09:30.517Z,99634.75
2022-10-14T10:10:39.314Z,99633.75
2022-10-14T10:11:29.126Z,99632.94
2022-10-14T10:12:32.388Z,99632.78
2022-10-14T10:13:37.182Z,99638.41
2022-10-14T10:14:43.351Z,99634.09
2022-10-14T10:15:41.899Z,99634.09
2022-10-14T10:16:34.248Z,99633.91
2022-10-14T10:17:27.880Z,99629.56
2022-10-14T10:19:27.919Z,99617.75
2022-10-14T10:20:20.450Z,99616.91
2022-10-14T10:21:28.170Z,99621.56
2022-10-14T10:22:30.930Z,99610.91
2022-10-14T10:23:36.886Z,99622.94
2022-10-14T10:24:30.975Z,99608.09
2022-10-14T10:25:14.617Z,99620.97
2022-10-14T10:26:08.772Z,99617.59
2022-10-14T10:27:00.980Z,99621.28
2022-10-14T10:28:01.970Z,99632.94
2022-10-14T10:28:55.334Z,99621.72
2022-10-14T10:29:49.310Z,99630.09
2022-10-14T10:30:42.954Z,99627.22
2022-10-14T10:32:44.872Z,99628.75
2022-10-14T10:33:47.424Z,99619.06
2022-10-14T10:34:32.327Z,99621.44
2022-10-14T10:35:33.619Z,99620.56
2022-10-14T10:36:28.810Z,99613.72
2022-10-14T10:37:36.515Z,99609.06
2022-10-14T10:38:35.835Z,99604.19